Smithton, Missouri
Current Conditions -  °F | °C
As of 11:53 AM on Thursday 30 Oct 2014 (Local Time) from KDMO Reporting Station
Light Rain Light Rain  
Wind Chill: 53°   Ceiling: 7000
Heat Index: 53°   Visibility: 8mi
Dew Point: 46°   Wind: 9mph
Humidity: 77%   Direction: 190°S
Pressure: 30.04"   Gusts: NA
Location:  38.68°N, 93.09°W
Report Text: KDMO 301653Z AUTO 19008KT 8SM -RA SCT046 BKN070 OVC095 12/08 A3004 RMK AO2 LTG DSNT SW RAB31 SLP174 P0003 T01170078
Loading
Personal Weather Stations






























Interactive Weather Map
Tropical Storm Tracking
New forecast layout! Learn more

10-Day Weather Forecast

Advertisements
Track Severe Weather on mobile